Time;durP1;ratioP1;P1;durP2;ratioP2;P2;SDS_P1;SDS_P2;PMS_P1;PMS_P2;Temp;Humidity;BMP_temperature;BMP_pressure;BME280_temperature;BME280_humidity;BME280_pressure;Samples;Min_cycle;Max_cycle;Signal;HPM_P1;HPM_P2
2022/12/03 00:01:49;;;;;;;63.02;33.58;;;;;;;3.32;86.30;98414.55;1735601;82;20960;-77
2022/12/03 00:04:16;;;;;;;67.42;31.85;;;;;;;3.29;86.33;98421.09;1716265;82;20997;-78
2022/12/03 00:06:43;;;;;;;71.92;33.83;;;;;;;3.29;86.76;98412.78;1712187;82;21041;-78
2022/12/03 00:09:10;;;;;;;66.40;33.63;;;;;;;3.32;86.46;98426.79;1706277;82;21009;-78
2022/12/03 00:11:36;;;;;;;63.68;33.98;;;;;;;3.26;86.36;98423.27;1706229;82;21100;-79
2022/12/03 00:14:04;;;;;;;70.22;35.30;;;;;;;3.26;86.59;98425.89;1705764;82;21029;-79
2022/12/03 00:16:30;;;;;;;66.77;36.23;;;;;;;3.25;86.75;98430.69;1707837;82;21312;-79
2022/12/03 00:18:57;;;;;;;69.32;34.92;;;;;;;3.21;86.71;98430.22;1704372;84;21011;-78
2022/12/03 00:21:24;;;;;;;73.05;36.30;;;;;;;3.16;86.87;98434.09;1701395;84;21001;-76
2022/12/03 00:23:51;;;;;;;64.77;35.05;;;;;;;3.15;86.83;98437.59;1668962;85;21048;-74
2022/12/03 00:26:17;;;;;;;67.35;34.48;;;;;;;3.16;86.62;98441.09;1682786;84;21117;-77
2022/12/03 00:28:44;;;;;;;69.10;34.90;;;;;;;3.13;86.53;98444.98;1699914;84;20984;-78
2022/12/03 00:31:10;;;;;;;70.00;35.25;;;;;;;3.12;86.78;98434.08;1697942;84;21078;-77
2022/12/03 00:33:37;;;;;;;70.62;36.77;;;;;;;3.10;86.74;98437.98;1688884;84;21008;-74
2022/12/03 00:36:04;;;;;;;70.12;35.63;;;;;;;3.08;86.66;98444.97;1690384;84;21035;-75
2022/12/03 00:38:30;;;;;;;76.00;36.98;;;;;;;3.06;86.41;98440.13;1655288;86;21505;-74
2022/12/03 00:40:57;;;;;;;69.07;35.23;;;;;;;3.05;87.11;98448.86;1692005;84;21026;-75
2022/12/03 00:43:24;;;;;;;66.62;35.17;;;;;;;3.04;86.59;98454.52;1711258;84;21473;-76
2022/12/03 00:45:51;;;;;;;69.72;35.13;;;;;;;3.03;86.63;98458.42;1688936;84;20975;-76
2022/12/03 00:48:18;;;;;;;71.37;35.78;;;;;;;3.01;86.93;98457.55;1683493;84;21466;-77
2022/12/03 00:50:45;;;;;;;77.10;37.20;;;;;;;3.01;87.22;98457.12;1697250;84;21466;-77
2022/12/03 00:53:11;;;;;;;70.03;35.75;;;;;;;3.02;87.20;98458.88;1677862;84;21064;-77
2022/12/03 00:55:37;;;;;;;68.28;34.75;;;;;;;3.02;87.09;98457.98;1680043;84;21002;-77
2022/12/03 00:58:07;;;;;;;70.03;36.17;;;;;;;3.03;87.14;98459.73;1701388;84;20957;-77
2022/12/03 01:00:35;;;;;;;71.05;35.43;;;;;;;3.04;87.04;98460.20;1688378;84;21100;-76
2022/12/03 01:03:03;;;;;;;73.97;36.68;;;;;;;3.04;87.31;98462.83;1708073;84;21087;-77
2022/12/03 01:05:29;;;;;;;68.62;34.83;;;;;;;3.01;87.12;98459.75;1708242;84;21060;-76
2022/12/03 01:07:56;;;;;;;69.60;34.95;;;;;;;2.99;86.93;98456.67;1708124;84;21031;-76
2022/12/03 01:10:23;;;;;;;67.15;34.88;;;;;;;3.00;86.98;98463.20;1708245;84;20964;-76
2022/12/03 01:12:49;;;;;;;70.12;35.25;;;;;;;3.01;87.00;98457.12;1695557;84;20996;-76
2022/12/03 01:15:18;;;;;;;71.15;35.30;;;;;;;3.04;87.25;98456.28;1715352;83;21043;-76
2022/12/03 01:17:44;;;;;;;72.35;34.23;;;;;;;3.01;87.34;98455.82;1724203;83;20996;-76
2022/12/03 01:20:13;;;;;;;69.97;33.90;;;;;;;3.02;87.11;98458.88;1720600;83;21410;-76
2022/12/03 01:22:40;;;;;;;65.45;34.03;;;;;;;3.02;87.11;98458.88;1721315;83;20988;-76
2022/12/03 01:25:07;;;;;;;78.97;35.00;;;;;;;3.03;87.12;98459.73;1715964;83;21059;-75
2022/12/03 01:27:35;;;;;;;72.20;34.20;;;;;;;3.07;87.17;98446.26;1721265;83;20981;-76
2022/12/03 01:30:02;;;;;;;65.37;33.18;;;;;;;3.07;87.38;98440.57;1711952;83;21051;-76
2022/12/03 01:32:28;;;;;;;67.75;34.23;;;;;;;3.10;87.44;98443.22;1718554;83;21019;-76
2022/12/03 01:34:55;;;;;;;68.10;33.10;;;;;;;3.16;87.59;98444.57;1725363;83;21421;-76
2022/12/03 01:37:24;;;;;;;63.30;33.95;;;;;;;3.20;87.55;98442.84;1725134;83;21035;-76
2022/12/03 01:39:51;;;;;;;62.85;33.15;;;;;;;3.23;87.65;98441.57;1717842;82;21433;-76
2022/12/03 01:42:26;;;;;;;64.82;31.95;;;;;;;3.27;87.45;98451.20;1724863;82;21072;-76
2022/12/03 01:44:58;;;;;;;62.25;32.05;;;;;;;3.27;87.41;98452.52;1719522;83;21037;-76
2022/12/03 01:47:36;;;;;;;62.93;31.60;;;;;;;3.33;87.57;98449.50;1725331;83;21007;-77
2022/12/03 01:50:11;;;;;;;60.30;30.80;;;;;;;3.35;87.58;98448.64;1727030;83;20975;-78
2022/12/03 01:52:39;;;;;;;64.53;31.77;;;;;;;3.38;87.51;98446.05;1724145;83;21051;-76
2022/12/03 01:55:11;;;;;;;62.30;31.93;;;;;;;3.40;87.66;98444.30;1726781;83;21449;-76
2022/12/03 01:57:48;;;;;;;69.47;33.63;;;;;;;3.49;87.63;98450.03;1722740;83;21465;-76
2022/12/03 02:00:19;;;;;;;60.60;31.65;;;;;;;3.51;87.42;98444.38;1696438;83;21070;-76
2022/12/03 02:02:51;;;;;;;55.63;30.95;;;;;;;3.51;87.24;98452.66;1724231;83;21024;-76
2022/12/03 02:05:28;;;;;;;59.60;31.25;;;;;;;3.52;87.46;98444.81;1725270;83;21027;-76
2022/12/03 02:07:56;;;;;;;66.97;33.02;;;;;;;3.54;87.48;98447.00;1716445;83;21106;-76
2022/12/03 02:10:29;;;;;;;66.20;32.60;;;;;;;3.53;87.40;98441.78;1714928;83;20968;-76
2022/12/03 02:13:08;;;;;;;61.30;32.08;;;;;;;3.53;87.25;98440.02;1721536;82;21509;-76
2022/12/03 02:15:38;;;;;;;66.12;32.80;;;;;;;3.50;86.95;98437.81;1719502;83;21487;-76
2022/12/03 02:18:07;;;;;;;60.70;30.82;;;;;;;3.49;86.84;98429.52;1711277;83;20952;-76
2022/12/03 02:20:45;;;;;;;61.65;31.75;;;;;;;3.45;86.82;98435.19;1718751;82;21033;-77
2022/12/03 02:23:34;;;;;;;65.12;32.83;;;;;;;3.44;86.71;98430.78;1714681;83;21474;-76
2022/12/03 02:26:00;;;;;;;62.45;32.48;;;;;;;3.42;86.85;98439.08;1707334;83;21035;-76
2022/12/03 02:28:32;;;;;;;65.00;33.63;;;;;;;3.40;86.84;98442.11;1702983;84;20976;-75
2022/12/03 02:30:59;;;;;;;58.78;31.07;;;;;;;3.39;86.96;98451.73;1702434;83;21012;-75
2022/12/03 02:33:25;;;;;;;62.25;33.48;;;;;;;3.35;86.91;98442.09;1705427;83;21124;-75
2022/12/03 02:35:52;;;;;;;67.40;33.00;;;;;;;3.34;86.73;98445.58;1702573;84;20996;-75
2022/12/03 02:38:22;;;;;;;64.07;32.63;;;;;;;3.30;86.57;98445.11;1710461;83;21003;-75
2022/12/03 02:40:56;;;;;;;64.82;33.15;;;;;;;3.25;87.03;98439.86;1706891;83;21012;-75
2022/12/03 02:43:23;;;;;;;67.87;34.18;;;;;;;3.21;87.03;98446.35;1705494;83;21402;-75
2022/12/03 02:45:54;;;;;;;67.35;33.58;;;;;;;3.15;86.90;98448.06;1692243;83;21068;-75
2022/12/03 02:48:33;;;;;;;66.65;35.25;;;;;;;3.13;86.90;98451.12;1702440;84;21012;-75
2022/12/03 02:51:07;;;;;;;63.52;33.40;;;;;;;3.10;86.93;98447.57;1702018;84;21077;-75
2022/12/03 02:53:44;;;;;;;66.37;34.78;;;;;;;3.08;86.85;98444.08;1702943;84;21015;-75
2022/12/03 02:56:18;;;;;;;70.03;34.92;;;;;;;3.09;87.06;98455.88;1704940;83;21024;-75
2022/12/03 02:58:48;;;;;;;68.20;33.83;;;;;;;3.07;87.09;98447.12;1702807;83;21029;-75
2022/12/03 03:01:16;;;;;;;65.65;33.90;;;;;;;3.09;87.15;98452.38;1723270;83;21103;-76
2022/12/03 03:03:46;;;;;;;75.42;34.18;;;;;;;3.10;87.28;98452.81;1702590;84;21366;-75
2022/12/03 03:06:14;;;;;;;70.55;34.60;;;;;;;3.08;87.18;98449.31;1702479;83;21000;-75
2022/12/03 03:08:42;;;;;;;63.02;34.73;;;;;;;3.07;87.11;98451.50;1702431;84;21000;-76
2022/12/03 03:11:09;;;;;;;68.28;32.93;;;;;;;3.08;87.25;98453.24;1718147;83;21063;-75
2022/12/03 03:13:38;;;;;;;67.12;33.80;;;;;;;3.09;87.29;98448.02;1713667;83;21501;-75
2022/12/03 03:16:07;;;;;;;63.58;34.18;;;;;;;3.09;87.05;98458.50;1697519;83;21176;-76
2022/12/03 03:18:35;;;;;;;67.22;31.90;;;;;;;3.07;87.12;98457.59;1696809;83;20972;-76
2022/12/03 03:21:03;;;;;;;61.98;34.25;;;;;;;3.06;87.26;98459.77;1666267;85;20992;-76
2022/12/03 03:23:30;;;;;;;69.27;34.60;;;;;;;3.06;87.42;98458.46;1665860;85;21035;-76
2022/12/03 03:26:04;;;;;;;66.12;34.15;;;;;;;3.07;87.41;98454.11;1700236;83;21422;-76
2022/12/03 03:28:34;;;;;;;67.72;34.15;;;;;;;3.02;87.33;98461.50;1697599;83;21012;-76
2022/12/03 03:31:03;;;;;;;63.30;32.17;;;;;;;3.01;87.55;98466.30;1665860;85;20996;-75
2022/12/03 03:33:31;;;;;;;65.28;34.08;;;;;;;2.98;87.57;98458.41;1666387;85;21016;-75
2022/12/03 03:36:01;;;;;;;65.15;33.83;;;;;;;3.02;87.49;98461.50;1728315;83;21032;-75
2022/12/03 03:38:30;;;;;;;67.95;33.15;;;;;;;3.06;87.45;98458.46;1702116;83;20944;-75
2022/12/03 03:41:01;;;;;;;61.02;30.92;;;;;;;3.10;87.57;98455.42;1666115;85;20997;-75
2022/12/03 03:43:29;;;;;;;64.75;32.53;;;;;;;3.16;87.68;98456.81;1692225;84;20995;-75
2022/12/03 03:45:56;;;;;;;64.62;33.48;;;;;;;3.21;87.87;98456.83;1697202;83;21000;-75
2022/12/03 03:48:22;;;;;;;57.73;31.07;;;;;;;3.26;87.79;98462.98;1665904;85;21438;-75
2022/12/03 03:50:50;;;;;;;59.15;30.55;;;;;;;3.26;87.53;98461.25;1664642;85;21000;-75
2022/12/03 03:53:17;;;;;;;60.95;31.07;;;;;;;3.29;87.67;98465.18;1697458;83;20993;-75
2022/12/03 03:55:44;;;;;;;56.15;29.65;;;;;;;3.31;87.59;98465.20;1697324;83;20960;-76
2022/12/03 03:58:11;;;;;;;57.73;30.23;;;;;;;3.30;87.52;98463.45;1665910;85;21004;-76
2022/12/03 04:00:38;;;;;;;57.78;29.90;;;;;;;3.27;87.53;98471.27;1697466;83;21025;-76
2022/12/03 04:03:06;;;;;;;64.12;32.55;;;;;;;3.29;87.65;98470.42;1697302;83;21465;-76
2022/12/03 04:05:33;;;;;;;61.05;30.72;;;;;;;3.29;87.67;98465.18;1675582;83;21012;-76
2022/12/03 04:07:59;;;;;;;58.92;31.17;;;;;;;3.35;87.70;98463.47;1697348;83;21052;-76
2022/12/03 04:13:11;;;;;;;59.83;31.70;;;;;;;3.34;87.97;98465.66;1672268;84;21031;-75
2022/12/03 04:15:37;;;;;;;59.20;30.48;;;;;;;3.34;87.78;98469.16;1673779;84;21026;-76
2022/12/03 04:20:49;;;;;;;53.00;28.67;;;;;;;3.18;87.29;98473.40;1697150;83;21008;-75
2022/12/03 04:23:15;;;;;;;63.85;31.15;;;;;;;3.10;87.29;98481.62;1666583;85;21418;-75
2022/12/03 04:36:42;;;;;;;62.58;30.70;;;;;;;2.80;87.30;98472.62;1661615;85;20976;-75
2022/12/03 04:39:08;;;;;;;58.17;31.07;;;;;;;2.70;87.11;98473.84;1664826;86;21416;-75
2022/12/03 04:41:35;;;;;;;61.95;32.13;;;;;;;2.63;87.13;98475.52;1646224;86;21013;-76
2022/12/03 04:46:46;;;;;;;57.13;30.10;;;;;;;2.52;87.37;98472.38;1647810;86;21411;-76
2022/12/03 04:49:13;;;;;;;53.02;26.00;;;;;;;2.43;87.52;98478.36;1647056;86;20985;-77
2022/12/03 04:51:40;;;;;;;51.30;25.92;;;;;;;2.35;88.00;98483.09;1646988;86;21018;-76
2022/12/03 04:54:06;;;;;;;53.20;27.32;;;;;;;2.28;87.76;98481.25;1641636;86;20986;-76
2022/12/03 04:56:33;;;;;;;52.70;25.12;;;;;;;2.21;88.08;98481.60;1647119;86;21097;-76
2022/12/03 04:58:59;;;;;;;45.70;24.90;;;;;;;2.18;87.84;98482.00;1647100;86;21464;-76
2022/12/03 05:01:26;;;;;;;45.98;24.27;;;;;;;2.12;87.53;98478.91;1647183;86;21029;-76
2022/12/03 05:03:52;;;;;;;40.80;21.62;;;;;;;2.07;87.57;98486.67;1647208;86;21084;-76
2022/12/03 05:06:19;;;;;;;40.55;22.48;;;;;;;2.00;87.54;98487.47;1646983;86;20986;-77
2022/12/03 05:08:46;;;;;;;43.98;22.80;;;;;;;1.97;87.89;98479.58;1645432;86;21514;-77
2022/12/03 05:11:12;;;;;;;45.33;22.62;;;;;;;1.95;87.98;98480.00;1647143;86;21040;-77
2022/12/03 05:13:38;;;;;;;45.35;23.10;;;;;;;1.93;88.03;98486.52;1648156;86;21454;-77
2022/12/03 05:16:06;;;;;;;45.73;22.80;;;;;;;1.91;87.94;98483.43;1650072;86;21073;-76
2022/12/03 05:18:32;;;;;;;50.85;26.00;;;;;;;1.89;88.31;98492.55;1654492;86;21009;-77
2022/12/03 05:20:58;;;;;;;46.53;25.90;;;;;;;1.89;88.46;98486.02;1654473;86;21016;-77
2022/12/03 05:23:25;;;;;;;51.53;26.15;;;;;;;1.92;88.81;98494.33;1654351;86;21000;-77
2022/12/03 05:25:51;;;;;;;46.75;25.05;;;;;;;1.90;88.99;98489.48;1647322;86;21101;-76
2022/12/03 05:28:20;;;;;;;51.35;26.48;;;;;;;1.91;88.95;98489.52;1653192;86;20977;-76
2022/12/03 05:30:47;;;;;;;56.98;28.25;;;;;;;1.90;88.41;98490.80;1654356;86;21014;-77
2022/12/03 05:33:13;;;;;;;52.80;27.62;;;;;;;1.89;88.47;98491.24;1654525;86;20969;-77
2022/12/03 05:35:39;;;;;;;48.52;25.70;;;;;;;1.84;88.19;98495.08;1654516;86;21462;-76
2022/12/03 05:38:06;;;;;;;50.83;25.35;;;;;;;1.83;88.26;98495.09;1654319;86;20993;-76
2022/12/03 05:40:32;;;;;;;55.70;26.95;;;;;;;1.80;88.24;98493.31;1654419;86;20990;-76
2022/12/03 05:43:02;;;;;;;48.58;26.85;;;;;;;1.81;88.45;98497.67;1646533;86;21446;-76
2022/12/03 05:45:33;;;;;;;51.02;26.82;;;;;;;1.82;88.82;98498.13;1654224;86;21458;-75
2022/12/03 05:48:02;;;;;;;51.20;27.00;;;;;;;1.83;88.70;98502.48;1654523;86;21009;-75
2022/12/03 05:50:33;;;;;;;49.83;27.10;;;;;;;1.73;88.51;98501.91;1654408;86;21439;-75
2022/12/03 05:53:03;;;;;;;53.15;29.50;;;;;;;1.72;88.60;98508.00;1652057;86;21017;-75
2022/12/03 05:55:29;;;;;;;56.20;29.02;;;;;;;1.63;88.20;98502.64;1654285;86;21005;-75
2022/12/03 05:57:56;;;;;;;56.58;28.95;;;;;;;1.56;88.78;98516.92;1648187;86;21435;-75
2022/12/03 06:00:32;;;;;;;52.20;28.10;;;;;;;1.56;89.04;98516.92;1650830;86;21047;-75
2022/12/03 06:02:59;;;;;;;52.30;27.45;;;;;;;1.54;88.82;98515.14;1649016;86;21032;-75
2022/12/03 06:05:25;;;;;;;58.75;28.42;;;;;;;1.46;88.45;98515.03;1654247;86;21068;-75
2022/12/03 06:07:52;;;;;;;55.58;27.93;;;;;;;1.40;88.32;98514.50;1654484;86;21512;-75
2022/12/03 06:10:23;;;;;;;53.73;28.40;;;;;;;1.37;88.26;98522.27;1654513;86;21048;-75
2022/12/03 06:12:50;;;;;;;53.30;27.67;;;;;;;1.30;88.28;98521.29;1644891;86;21001;-75
2022/12/03 06:15:19;;;;;;;59.45;28.73;;;;;;;1.30;88.77;98515.20;1650144;86;21112;-75
2022/12/03 06:17:45;;;;;;;53.48;27.95;;;;;;;1.26;88.24;98521.23;1654399;86;21068;-75
2022/12/03 06:20:17;;;;;;;54.48;28.15;;;;;;;1.21;88.22;98520.28;1654386;86;21407;-75
2022/12/03 06:22:43;;;;;;;58.60;29.32;;;;;;;1.15;88.46;98515.41;1654384;86;20993;-75
2022/12/03 06:25:11;;;;;;;60.75;32.17;;;;;;;1.17;88.61;98518.91;1651229;86;21016;-75
2022/12/03 06:27:38;;;;;;;55.98;29.52;;;;;;;1.18;88.45;98527.63;1650580;86;20950;-75
2022/12/03 06:30:07;;;;;;;59.18;29.20;;;;;;;1.17;88.63;98522.83;1652700;86;21016;-75
2022/12/03 06:32:34;;;;;;;59.05;28.23;;;;;;;1.20;88.89;98522.44;1656109;86;21004;-75
2022/12/03 06:35:01;;;;;;;57.95;29.42;;;;;;;1.19;89.31;98531.99;1656973;86;21016;-75
2022/12/03 06:37:27;;;;;;;54.48;28.90;;;;;;;1.17;89.47;98537.63;1698192;84;20971;-75
2022/12/03 06:39:56;;;;;;;55.25;29.48;;;;;;;1.15;89.50;98533.69;1691889;84;21477;-75
2022/12/03 06:42:23;;;;;;;60.08;29.52;;;;;;;1.15;89.42;98524.55;1698613;84;21008;-75
2022/12/03 06:44:49;;;;;;;54.70;29.05;;;;;;;1.22;89.52;98533.36;1693890;84;20971;-75
2022/12/03 06:47:16;;;;;;;52.20;27.65;;;;;;;1.29;89.43;98535.66;1687524;84;21019;-75
2022/12/03 06:49:43;;;;;;;51.68;27.13;;;;;;;1.33;89.05;98537.47;1695169;84;21051;-75
2022/12/03 06:52:09;;;;;;;48.38;24.65;;;;;;;1.36;88.84;98538.80;1695646;84;21093;-75
2022/12/03 06:54:36;;;;;;;48.10;25.20;;;;;;;1.40;89.05;98542.34;1685543;84;21136;-75
2022/12/03 06:57:02;;;;;;;50.83;25.37;;;;;;;1.44;89.45;98539.81;1693102;84;20979;-76
2022/12/03 06:59:32;;;;;;;45.67;24.70;;;;;;;1.55;89.95;98538.69;1698146;84;21016;-75
2022/12/03 07:01:57;;;;;;;48.40;23.87;;;;;;;1.65;89.73;98538.38;1689032;84;20992;-75
2022/12/03 07:04:23;;;;;;;48.15;24.25;;;;;;;1.73;89.86;98535.02;1698151;84;21031;-75
2022/12/03 07:06:50;;;;;;;45.35;24.27;;;;;;;1.85;89.83;98533.88;1693589;84;21059;-76
2022/12/03 07:09:18;;;;;;;45.50;23.55;;;;;;;1.97;89.85;98542.31;1696858;84;21796;-75
2022/12/03 07:11:44;;;;;;;47.38;24.10;;;;;;;2.04;89.32;98534.14;1692199;84;21027;-76
2022/12/03 07:14:12;;;;;;;46.48;25.70;;;;;;;2.10;89.32;98540.75;1696020;84;21015;-76
2022/12/03 07:16:41;;;;;;;49.05;24.70;;;;;;;2.20;89.52;98536.08;1685734;84;21446;-76
2022/12/03 07:19:09;;;;;;;49.85;25.80;;;;;;;2.28;89.48;98532.70;1692061;83;21402;-76
2022/12/03 07:21:36;;;;;;;47.10;25.85;;;;;;;2.32;89.04;98526.66;1692439;83;21419;-76
2022/12/03 07:24:03;;;;;;;51.53;26.90;;;;;;;2.38;89.20;98533.26;1692445;83;21005;-75
2022/12/03 07:26:29;;;;;;;51.53;27.60;;;;;;;2.44;89.09;98531.13;1679296;85;21056;-75
2022/12/03 07:28:56;;;;;;;53.63;26.27;;;;;;;2.43;88.58;98529.37;1689354;85;21004;-75
2022/12/03 07:31:22;;;;;;;52.62;27.70;;;;;;;2.40;88.40;98538.52;1689581;84;21045;-75
2022/12/03 07:33:49;;;;;;;52.95;28.70;;;;;;;2.38;88.40;98540.66;1690524;83;21455;-75
2022/12/03 07:36:16;;;;;;;56.30;28.00;;;;;;;2.36;88.31;98542.81;1693651;83;21008;-75
2022/12/03 07:38:42;;;;;;;56.05;29.02;;;;;;;2.35;88.24;98541.06;1656203;85;21399;-75
2022/12/03 07:41:09;;;;;;;55.52;29.05;;;;;;;2.35;88.26;98540.64;1689499;84;21060;-75
2022/12/03 07:43:35;;;;;;;53.95;29.20;;;;;;;2.33;88.18;98538.42;1692647;84;20988;-75
2022/12/03 07:46:02;;;;;;;60.90;29.27;;;;;;;2.29;88.15;98541.88;1690898;83;21397;-75
2022/12/03 07:48:28;;;;;;;52.83;28.40;;;;;;;2.29;88.18;98541.88;1689534;85;21407;-75
2022/12/03 07:50:55;;;;;;;58.35;30.72;;;;;;;2.30;88.12;98538.40;1691152;83;20969;-75
2022/12/03 07:53:21;;;;;;;59.55;28.42;;;;;;;2.24;87.99;98533.96;1690327;84;21012;-76
2022/12/03 07:55:48;;;;;;;58.83;29.00;;;;;;;2.21;88.27;98543.06;1689501;84;21391;-76
2022/12/03 07:58:14;;;;;;;62.08;31.50;;;;;;;2.25;88.27;98546.63;1689313;84;21024;-76
2022/12/03 08:00:41;;;;;;;66.72;31.87;;;;;;;2.26;88.30;98550.09;1690237;83;21016;-76
2022/12/03 08:03:07;;;;;;;62.83;32.60;;;;;;;2.24;88.10;98537.88;1689461;85;20989;-76
2022/12/03 08:05:33;;;;;;;68.90;32.25;;;;;;;2.33;88.71;98542.79;1703909;83;21028;-76
2022/12/03 08:08:00;;;;;;;62.30;30.48;;;;;;;2.42;88.64;98545.52;1689580;85;21020;-76
2022/12/03 08:10:27;;;;;;;76.00;32.28;;;;;;;2.50;88.56;98540.38;1689395;85;20953;-76
2022/12/03 08:12:56;;;;;;;67.05;32.20;;;;;;;2.56;88.29;98536.52;1693283;84;20985;-76
2022/12/03 08:15:27;;;;;;;71.62;32.33;;;;;;;2.63;88.58;98537.47;1689578;85;21040;-76
2022/12/03 08:17:58;;;;;;;66.45;32.00;;;;;;;2.70;88.66;98534.05;1672106;85;21001;-75
2022/12/03 08:20:30;;;;;;;70.30;32.23;;;;;;;2.73;88.52;98535.39;1690957;83;21008;-76
2022/12/03 08:22:57;;;;;;;68.70;32.88;;;;;;;2.82;88.91;98531.13;1690249;85;21092;-76
2022/12/03 08:25:28;;;;;;;67.15;33.08;;;;;;;2.86;88.64;98532.92;1663380;85;21409;-76
2022/12/03 08:28:12;;;;;;;66.53;33.67;;;;;;;2.92;88.77;98530.78;1690891;85;21447;-76
2022/12/03 08:30:43;;;;;;;69.47;33.85;;;;;;;2.96;88.37;98539.11;1690739;84;20992;-76
2022/12/03 08:33:35;;;;;;;70.57;35.43;;;;;;;3.02;88.50;98543.98;1690432;84;21027;-76
2022/12/03 08:36:19;;;;;;;73.30;34.98;;;;;;;3.12;88.40;98546.69;1690670;85;21028;-76
2022/12/03 08:39:02;;;;;;;82.05;38.33;;;;;;;3.22;88.66;98545.02;1692889;83;21056;-76
2022/12/03 08:44:22;;;;;;;;;;;;;;;3.46;88.72;98543.48;1693087;84;21036;-76
2022/12/03 08:46:53;;;;;;;78.10;37.08;;;;;;;3.53;88.63;98546.16;1690396;84;20100;-76
2022/12/03 08:49:21;;;;;;;84.37;39.08;;;;;;;3.58;88.20;98544.01;1690638;84;21502;-76
2022/12/03 08:51:51;;;;;;;74.40;36.38;;;;;;;3.55;87.89;98558.86;1702267;83;20984;-76
2022/12/03 08:54:19;;;;;;;74.65;37.55;;;;;;;3.51;88.01;98549.62;1690543;85;21056;-76
2022/12/03 08:56:45;;;;;;;75.17;37.30;;;;;;;3.58;88.17;98553.18;1690471;84;21067;-76
2022/12/03 08:59:31;;;;;;;72.03;35.03;;;;;;;3.63;88.28;98548.84;1691846;83;20988;-76
2022/12/03 09:01:59;;;;;;;67.58;35.05;;;;;;;3.66;88.05;98544.50;1698685;83;21430;-76
2022/12/03 09:04:31;;;;;;;77.45;36.98;;;;;;;3.72;88.06;98545.41;1690586;85;21029;-75
2022/12/03 09:06:58;;;;;;;74.37;35.98;;;;;;;3.76;87.97;98545.87;1690373;85;21013;-76
2022/12/03 09:09:25;;;;;;;73.47;34.92;;;;;;;3.79;87.93;98546.77;1688461;83;20984;-76
2022/12/03 09:11:52;;;;;;;74.25;36.17;;;;;;;3.83;87.97;98545.06;1697812;84;21453;-75
2022/12/03 09:14:21;;;;;;;72.80;36.68;;;;;;;3.84;87.94;98544.19;1691587;83;21028;-75
2022/12/03 09:16:50;;;;;;;67.90;34.50;;;;;;;3.88;87.98;98542.46;1689094;84;21028;-76
2022/12/03 09:19:17;;;;;;;64.77;33.83;;;;;;;3.94;87.99;98539.45;1654352;85;21489;-76
2022/12/03 09:21:43;;;;;;;60.63;31.37;;;;;;;3.95;87.96;98541.64;1654379;85;21074;-76
2022/12/03 09:24:10;;;;;;;60.83;32.13;;;;;;;3.98;88.05;98532.47;1650214;85;21438;-75
2022/12/03 09:26:37;;;;;;;58.08;29.52;;;;;;;4.03;88.10;98535.98;1647229;85;21025;-76
2022/12/03 09:29:04;;;;;;;53.28;28.02;;;;;;;4.08;87.93;98530.33;1654106;85;21025;-75
2022/12/03 09:31:33;;;;;;;53.73;25.82;;;;;;;4.09;87.96;98525.97;1654373;85;20985;-75
2022/12/03 09:34:04;;;;;;;53.65;26.33;;;;;;;4.09;88.05;98526.86;1654524;85;21033;-75
2022/12/03 09:36:31;;;;;;;45.50;23.32;;;;;;;4.16;87.84;98529.52;1654362;85;21140;-77
2022/12/03 09:38:57;;;;;;;45.63;23.47;;;;;;;4.21;87.68;98521.23;1654514;85;21024;-76
2022/12/03 09:41:25;;;;;;;50.30;23.60;;;;;;;4.20;87.62;98523.41;1654833;85;21015;-76
2022/12/03 09:43:53;;;;;;;46.33;22.58;;;;;;;4.27;87.76;98519.93;1643930;86;21041;-77
2022/12/03 09:46:21;;;;;;;44.27;23.20;;;;;;;4.32;87.58;98526.08;1647687;87;21036;-76
2022/12/03 09:48:48;;;;;;;50.38;24.32;;;;;;;4.39;87.39;98522.19;1647532;87;21073;-77
2022/12/03 09:51:14;;;;;;;49.00;24.18;;;;;;;4.42;87.15;98515.20;1650640;85;21477;-77
2022/12/03 09:53:41;;;;;;;47.78;23.90;;;;;;;4.46;87.05;98515.66;1652897;85;21060;-77
2022/12/03 09:56:13;;;;;;;45.12;22.73;;;;;;;4.51;87.28;98516.97;1647965;86;21040;-76
2022/12/03 09:58:42;;;;;;;44.55;22.95;;;;;;;4.59;87.13;98519.19;1647590;85;21024;-76
2022/12/03 10:01:13;;;;;;;45.63;23.67;;;;;;;4.64;86.89;98516.56;1647052;87;21016;-77
2022/12/03 10:03:47;;;;;;;44.42;22.30;;;;;;;4.66;86.51;98520.09;1653624;86;21449;-76
2022/12/03 10:06:18;;;;;;;42.25;22.90;;;;;;;4.70;86.54;98514.40;1654771;85;21024;-74
2022/12/03 10:08:52;;;;;;;46.63;23.00;;;;;;;4.74;86.49;98505.20;1655281;85;20948;-77
2022/12/03 10:11:22;;;;;;;42.67;21.00;;;;;;;4.83;86.83;98507.00;1655041;85;21012;-77
2022/12/03 10:13:52;;;;;;;45.50;23.05;;;;;;;4.87;86.11;98508.73;1665001;85;21021;-75
2022/12/03 10:16:19;;;;;;;47.20;23.18;;;;;;;4.94;86.44;98504.83;1667770;84;21433;-74
2022/12/03 10:18:58;;;;;;;41.83;21.82;;;;;;;4.94;85.62;98510.08;1684093;84;21000;-75
2022/12/03 10:21:36;;;;;;;42.98;21.75;;;;;;;4.86;84.86;98506.98;1674284;84;21016;-75
2022/12/03 10:24:28;;;;;;;41.68;20.85;;;;;;;4.77;85.30;98502.17;1682482;84;21402;-74
2022/12/03 10:26:59;;;;;;;41.25;19.75;;;;;;;4.72;85.20;98507.39;1660338;84;21434;-75
2022/12/03 10:29:30;;;;;;;42.23;20.50;;;;;;;4.65;85.45;98509.58;1639998;87;21066;-75
2022/12/03 10:32:10;;;;;;;48.40;21.35;;;;;;;4.63;85.60;98510.88;1667079;85;21016;-76
2022/12/03 10:34:40;;;;;;;40.92;20.12;;;;;;;4.64;86.01;98517.02;1662144;86;21012;-75
2022/12/03 10:37:20;;;;;;;42.58;20.45;;;;;;;4.65;85.87;98508.27;1644290;86;21427;-76
2022/12/03 10:40:01;;;;;;;38.45;18.40;;;;;;;4.60;85.73;98513.06;1661405;86;21012;-75
2022/12/03 10:42:31;;;;;;;44.50;19.45;;;;;;;4.56;85.73;98515.23;1668749;85;21048;-75
2022/12/03 10:45:17;;;;;;;37.38;18.87;;;;;;;4.52;86.12;98513.46;1669326;84;21047;-75
2022/12/03 10:48:04;;;;;;;35.55;18.67;;;;;;;4.48;86.11;98504.70;1661529;86;21020;-75
2022/12/03 10:50:32;;;;;;;36.63;19.07;;;;;;;4.43;86.17;98508.18;1661678;86;21421;-75
2022/12/03 10:52:59;;;;;;;38.53;18.80;;;;;;;4.36;86.32;98501.60;1634860;86;21019;-75
2022/12/03 10:55:30;;;;;;;41.53;19.42;;;;;;;4.33;86.34;98502.03;1661599;86;21056;-75
2022/12/03 10:57:57;;;;;;;38.95;19.82;;;;;;;4.31;86.39;98505.07;1661532;86;21036;-75
2022/12/03 11:00:24;;;;;;;42.58;21.12;;;;;;;4.27;86.69;98502.02;1665154;85;21084;-75
2022/12/03 11:02:50;;;;;;;40.48;20.10;;;;;;;4.23;86.81;98492.81;1661309;86;21020;-75
2022/12/03 11:05:22;;;;;;;40.40;19.00;;;;;;;4.19;86.77;98494.98;1661538;86;21394;-75
2022/12/03 11:07:49;;;;;;;44.23;20.45;;;;;;;4.18;86.75;98494.54;1661504;86;21017;-75
2022/12/03 11:10:18;;;;;;;51.30;21.02;;;;;;;4.14;86.98;98498.02;1661513;86;21016;-75
2022/12/03 11:13:25;;;;;;;37.30;19.92;;;;;;;4.12;86.88;98494.52;1673480;85;21009;-75
2022/12/03 11:15:53;;;;;;;35.95;19.15;;;;;;;4.12;86.99;98488.39;1665444;85;21126;-75
2022/12/03 11:18:40;;;;;;;40.08;19.75;;;;;;;4.11;86.95;98490.58;1655406;86;21025;-77
2022/12/03 11:21:13;;;;;;;43.60;19.60;;;;;;;4.11;87.13;98483.56;1647356;87;21062;-75
2022/12/03 11:23:51;;;;;;;36.23;18.77;;;;;;;4.14;87.12;98484.01;1647123;86;21029;-75
2022/12/03 11:26:34;;;;;;;40.30;20.68;;;;;;;4.16;86.87;98477.05;1639798;86;21028;-75
2022/12/03 11:29:01;;;;;;;35.58;18.52;;;;;;;4.18;87.01;98479.22;1642744;86;21089;-75
2022/12/03 11:31:41;;;;;;;38.73;21.75;;;;;;;4.18;87.01;98471.35;1653552;86;21390;-76
2022/12/03 11:34:22;;;;;;;40.28;18.73;;;;;;;4.18;86.91;98488.41;1646935;86;21124;-75
2022/12/03 11:37:15;;;;;;;35.95;18.00;;;;;;;4.19;87.16;98486.25;1647049;86;21075;-76
2022/12/03 11:39:57;;;;;;;33.88;17.85;;;;;;;4.21;87.04;98479.25;1639080;86;21021;-76
2022/12/03 11:42:28;;;;;;;35.68;17.37;;;;;;;4.25;87.14;98481.02;1632730;86;21072;-76
2022/12/03 11:45:09;;;;;;;35.43;17.43;;;;;;;4.25;87.09;98481.02;1645242;86;21057;-75
2022/12/03 11:47:46;;;;;;;35.48;17.62;;;;;;;4.21;86.94;98480.56;1693984;83;21072;-75
2022/12/03 11:50:24;;;;;;;39.03;18.32;;;;;;;4.20;87.14;98482.75;1674736;83;21402;-75
2022/12/03 11:53:22;;;;;;;40.38;18.80;;;;;;;4.18;87.15;98488.41;1696970;83;21047;-75
2022/12/03 11:56:05;;;;;;;41.33;19.23;;;;;;;4.20;87.12;98490.62;1697219;83;21051;-75
2022/12/03 11:58:29;;;;;;;41.05;19.60;;;;;;;4.22;87.04;98484.93;1694016;83;21008;-75
2022/12/03 12:01:02;;;;;;;38.45;18.17;;;;;;;4.28;87.02;98487.57;1697969;83;21081;-76